createdAt,value
2023-11-18T00:00:12.498Z,4.74
2023-11-18T00:02:40.174Z,4.38
2023-11-18T00:05:08.699Z,4.33
2023-11-18T00:07:36.069Z,4.15
2023-11-18T00:10:04.823Z,3.91
2023-11-18T00:12:31.962Z,4.01
2023-11-18T00:14:58.976Z,4.10
2023-11-18T00:17:25.939Z,3.83
2023-11-18T00:19:54.934Z,3.40
2023-11-18T00:22:22.191Z,3.59
2023-11-18T00:24:49.437Z,3.68
2023-11-18T00:27:16.606Z,3.52
2023-11-18T00:29:44.899Z,3.59
2023-11-18T00:32:12.673Z,3.52
2023-11-18T00:34:40.138Z,3.52
2023-11-18T00:37:08.310Z,3.59
2023-11-18T00:39:35.621Z,3.49
2023-11-18T00:42:02.731Z,3.22
2023-11-18T00:44:29.798Z,3.09
2023-11-18T00:46:58.827Z,3.19
2023-11-18T00:49:27.077Z,3.26
2023-11-18T00:51:54.534Z,3.36
2023-11-18T00:54:21.468Z,3.39
2023-11-18T00:56:48.456Z,3.04
2023-11-18T00:59:16.688Z,2.94
2023-11-18T01:01:43.927Z,2.62
2023-11-18T01:04:11.010Z,2.83
2023-11-18T01:06:38.223Z,3.16
2023-11-18T01:09:05.213Z,2.85
2023-11-18T01:11:32.207Z,2.81
2023-11-18T01:13:59.249Z,2.84
2023-11-18T01:16:26.378Z,2.75
2023-11-18T01:18:53.473Z,2.64
2023-11-18T01:21:20.460Z,2.54
2023-11-18T01:23:47.683Z,2.63
2023-11-18T01:26:15.814Z,2.53
2023-11-18T01:28:44.489Z,2.35
2023-11-18T01:31:12.504Z,2.44
2023-11-18T01:33:41.769Z,2.22
2023-11-18T01:36:10.609Z,2.07
2023-11-18T01:38:40.246Z,2.11
2023-11-18T01:41:08.557Z,2.35
2023-11-18T01:43:36.247Z,2.37
2023-11-18T01:46:08.367Z,2.22
2023-11-18T01:48:35.759Z,2.14
2023-11-18T01:51:07.663Z,2.18
2023-11-18T01:53:41.032Z,2.07
2023-11-18T01:56:09.834Z,2.18
2023-11-18T01:58:37.552Z,2.18
2023-11-18T02:01:09.488Z,2.31
2023-11-18T02:03:37.525Z,2.54
2023-11-18T02:06:07.200Z,2.46
2023-11-18T02:08:39.889Z,2.58
2023-11-18T02:11:42.318Z,2.59
2023-11-18T02:14:17.439Z,2.61
2023-11-18T02:16:46.523Z,2.45
2023-11-18T02:19:26.061Z,2.48
2023-11-18T02:21:58.338Z,2.45
2023-11-18T02:24:29.282Z,2.55
2023-11-18T02:26:58.827Z,3.01
2023-11-18T02:29:30.695Z,2.68
2023-11-18T02:32:09.797Z,2.99
2023-11-18T02:34:52.516Z,2.53
2023-11-18T02:37:20.025Z,2.60
2023-11-18T02:39:55.190Z,2.57
2023-11-18T02:42:24.065Z,2.51
2023-11-18T02:45:00.502Z,2.78
2023-11-18T02:47:28.551Z,2.63
2023-11-18T02:50:07.834Z,2.47
2023-11-18T02:52:35.030Z,2.56
2023-11-18T02:55:02.329Z,2.52
2023-11-18T02:57:29.408Z,2.40
2023-11-18T02:59:56.669Z,2.48
2023-11-18T03:02:23.727Z,2.37
2023-11-18T03:04:50.716Z,2.28
2023-11-18T03:07:17.815Z,2.19
2023-11-18T03:09:44.917Z,2.38
2023-11-18T03:12:12.789Z,2.44
2023-11-18T03:14:39.791Z,2.27
2023-11-18T03:17:07.770Z,2.53
2023-11-18T03:19:38.223Z,2.27
2023-11-18T03:22:05.776Z,2.39
2023-11-18T03:24:32.774Z,2.25
2023-11-18T03:27:00.221Z,2.29
2023-11-18T03:29:27.207Z,2.49
2023-11-18T03:31:54.272Z,2.27
2023-11-18T03:34:22.144Z,2.24
2023-11-18T03:36:49.141Z,2.07
2023-11-18T03:39:16.280Z,2.27
2023-11-18T03:41:45.470Z,2.19
2023-11-18T03:44:15.637Z,2.18
2023-11-18T03:46:43.807Z,2.18
2023-11-18T03:49:11.067Z,2.22
2023-11-18T03:51:38.031Z,2.25
2023-11-18T03:54:05.590Z,2.39
2023-11-18T03:56:32.895Z,2.31
2023-11-18T03:59:00.248Z,2.19
2023-11-18T04:01:28.719Z,2.14
2023-11-18T04:03:56.594Z,2.18
2023-11-18T04:06:25.608Z,2.12
2023-11-18T04:08:52.960Z,2.14
2023-11-18T04:11:20.562Z,2.14
2023-11-18T04:13:47.602Z,2.21
2023-11-18T04:16:20.306Z,2.15
2023-11-18T04:18:47.509Z,2.09
2023-11-18T04:21:15.297Z,2.37
2023-11-18T04:23:45.086Z,2.24
2023-11-18T04:26:12.158Z,2.38
2023-11-18T04:28:39.651Z,2.00
2023-11-18T04:31:07.434Z,1.99
2023-11-18T04:33:34.694Z,2.17
2023-11-18T04:36:01.942Z,2.16
2023-11-18T04:38:29.059Z,2.07
2023-11-18T04:40:56.978Z,2.18
2023-11-18T04:43:34.585Z,2.27
2023-11-18T04:46:09.140Z,2.34
2023-11-18T04:48:38.810Z,2.40
2023-11-18T04:51:07.888Z,2.02
2023-11-18T04:53:35.410Z,2.31
2023-11-18T04:56:03.821Z,2.35
2023-11-18T04:58:31.079Z,2.14
2023-11-18T05:00:58.312Z,2.41
2023-11-18T05:03:25.663Z,2.43
2023-11-18T05:05:55.985Z,2.30
2023-11-18T05:08:24.779Z,2.28
2023-11-18T05:10:52.087Z,2.54
2023-11-18T05:13:20.300Z,2.63
2023-11-18T05:15:48.677Z,2.68
2023-11-18T05:18:16.854Z,2.35
2023-11-18T05:20:45.111Z,2.66
2023-11-18T05:23:13.794Z,2.65
2023-11-18T05:25:41.927Z,2.68
2023-11-18T05:28:12.397Z,2.95
2023-11-18T05:30:46.254Z,2.91
2023-11-18T05:33:18.761Z,2.71
2023-11-18T05:35:50.622Z,3.04
2023-11-18T05:38:21.196Z,2.87
2023-11-18T05:40:58.970Z,3.00
2023-11-18T05:43:31.086Z,3.01
2023-11-18T05:46:18.822Z,3.00
2023-11-18T05:48:46.033Z,3.01
2023-11-18T05:51:13.869Z,3.26
2023-11-18T05:53:43.200Z,3.21
2023-11-18T05:56:10.353Z,3.37
2023-11-18T05:58:38.603Z,3.52
2023-11-18T06:01:10.783Z,3.17
2023-11-18T06:03:40.566Z,3.25
2023-11-18T06:06:10.854Z,3.35
2023-11-18T06:08:42.922Z,3.72
2023-11-18T06:11:16.314Z,3.73
2023-11-18T06:13:49.832Z,4.18
2023-11-18T06:16:25.586Z,4.56
2023-11-18T06:18:58.158Z,4.35
2023-11-18T06:21:31.753Z,4.29
2023-11-18T06:24:01.588Z,4.62
2023-11-18T06:26:29.945Z,4.30
2023-11-18T06:28:57.861Z,4.12
2023-11-18T06:31:25.769Z,4.55
2023-11-18T06:33:54.064Z,4.65
2023-11-18T06:36:23.397Z,4.40
2023-11-18T06:38:53.289Z,4.53
2023-11-18T06:41:34.643Z,4.50
2023-11-18T06:44:04.185Z,4.74
2023-11-18T06:46:35.682Z,4.92
2023-11-18T06:49:08.003Z,5.26
2023-11-18T06:51:37.590Z,5.14
2023-11-18T06:54:10.772Z,5.35
2023-11-18T06:56:46.034Z,5.56
2023-11-18T06:59:16.333Z,5.09
2023-11-18T07:01:46.294Z,5.20
2023-11-18T07:04:15.930Z,5.25
2023-11-18T07:06:44.580Z,5.10
2023-11-18T07:09:14.790Z,5.17
2023-11-18T07:11:42.480Z,5.05
2023-11-18T07:14:10.609Z,5.21
2023-11-18T07:16:41.091Z,5.11
2023-11-18T07:19:18.821Z,4.70
2023-11-18T07:21:45.931Z,4.97
2023-11-18T07:24:13.503Z,4.94
2023-11-18T07:26:40.869Z,5.24
2023-11-18T07:29:10.896Z,5.36
2023-11-18T07:31:37.948Z,5.55
2023-11-18T07:34:06.898Z,5.41
2023-11-18T07:36:34.739Z,5.47
2023-11-18T07:39:02.824Z,5.50
2023-11-18T07:41:33.654Z,5.36
2023-11-18T07:44:01.579Z,5.53
2023-11-18T07:46:32.477Z,5.50
2023-11-18T07:49:02.682Z,5.54
2023-11-18T07:51:30.204Z,5.32
2023-11-18T07:53:57.759Z,5.40
2023-11-18T07:56:25.016Z,5.31
2023-11-18T07:58:53.637Z,4.97
2023-11-18T08:01:23.070Z,5.33
2023-11-18T08:03:52.457Z,5.40
2023-11-18T08:06:20.036Z,5.25
2023-11-18T08:08:49.243Z,5.26
2023-11-18T08:11:16.535Z,5.45
2023-11-18T08:13:45.338Z,5.39
2023-11-18T08:16:14.028Z,5.52
2023-11-18T08:18:42.236Z,4.85
2023-11-18T08:21:10.101Z,5.26
2023-11-18T08:23:38.814Z,5.24
2023-11-18T08:26:07.935Z,5.38
2023-11-18T08:28:36.710Z,5.86
2023-11-18T08:31:04.343Z,5.91
2023-11-18T08:33:31.856Z,5.99
2023-11-18T08:35:59.109Z,5.72
2023-11-18T08:38:26.874Z,5.78
2023-11-18T08:40:57.055Z,5.94
2023-11-18T08:43:26.987Z,6.05
2023-11-18T08:45:54.490Z,6.03
2023-11-18T08:48:24.105Z,6.17
2023-11-18T08:50:53.068Z,6.19
2023-11-18T08:53:27.168Z,6.20
2023-11-18T08:55:55.948Z,6.52
2023-11-18T08:58:29.563Z,6.50
2023-11-18T09:01:07.612Z,6.60
2023-11-18T09:03:36.595Z,6.72
2023-11-18T09:06:14.081Z,6.55
2023-11-18T09:08:44.296Z,6.54
2023-11-18T09:11:16.256Z,7.01
2023-11-18T09:13:52.539Z,6.69
2023-11-18T09:16:22.367Z,6.96
2023-11-18T09:18:52.689Z,7.22
2023-11-18T09:21:24.952Z,7.54
2023-11-18T09:23:53.037Z,7.84
2023-11-18T09:26:23.040Z,8.14
2023-11-18T09:28:51.365Z,8.10
2023-11-18T09:31:18.654Z,8.13
2023-11-18T09:33:53.839Z,8.00
2023-11-18T09:36:23.937Z,8.19
2023-11-18T09:38:51.183Z,8.15
2023-11-18T09:41:18.836Z,8.40
2023-11-18T09:43:48.777Z,8.63
2023-11-18T09:46:31.690Z,7.93
2023-11-18T09:49:39.959Z,8.02
2023-11-18T09:52:08.232Z,8.21
2023-11-18T09:54:54.650Z,8.07
2023-11-18T09:57:38.632Z,7.75
2023-11-18T10:00:26.725Z,7.66
2023-11-18T10:02:56.922Z,7.44
2023-11-18T10:05:28.741Z,7.33
2023-11-18T10:07:56.139Z,7.44
2023-11-18T10:10:23.284Z,7.41
2023-11-18T10:12:59.335Z,7.13
2023-11-18T10:15:28.287Z,7.44
2023-11-18T10:18:07.922Z,6.98
2023-11-18T10:20:50.646Z,7.10
2023-11-18T10:23:21.912Z,6.72
2023-11-18T10:25:59.644Z,6.84
2023-11-18T10:28:29.006Z,6.24
2023-11-18T10:31:04.703Z,6.32
2023-11-18T10:33:42.704Z,6.48
2023-11-18T10:36:25.456Z,6.43
2023-11-18T10:38:57.349Z,5.97
2023-11-18T10:41:25.123Z,6.23
2023-11-18T10:44:16.812Z,6.39
2023-11-18T10:46:54.243Z,5.96
2023-11-18T10:49:25.202Z,6.04
2023-11-18T10:51:53.362Z,6.02
2023-11-18T10:54:20.640Z,5.85
2023-11-18T10:56:50.542Z,6.18
2023-11-18T10:59:19.486Z,6.17
2023-11-18T11:01:50.968Z,6.27
2023-11-18T11:04:21.978Z,5.94
2023-11-18T11:06:54.304Z,6.27
2023-11-18T11:15:52.044Z,6.02
2023-11-18T11:18:36.110Z,6.33
2023-11-18T11:21:18.498Z,6.18
2023-11-18T11:24:15.489Z,6.00
2023-11-18T11:27:05.608Z,5.72
2023-11-18T11:29:44.327Z,6.14
2023-11-18T11:32:32.013Z,5.96
2023-11-18T11:35:09.412Z,5.61
2023-11-18T11:37:39.264Z,5.46
2023-11-18T11:40:12.061Z,5.26
2023-11-18T11:42:43.814Z,5.02
2023-11-18T11:45:21.364Z,4.57
2023-11-18T11:47:53.712Z,5.05
2023-11-18T11:50:33.648Z,4.87
2023-11-18T11:53:16.681Z,5.05
2023-11-18T11:55:55.305Z,5.25
2023-11-18T11:58:34.371Z,4.85
2023-11-18T12:01:34.664Z,5.38
2023-11-18T12:04:22.151Z,5.36
2023-11-18T12:06:56.885Z,6.37
2023-11-18T12:09:34.286Z,6.17
2023-11-18T12:12:03.986Z,9.02
2023-11-18T12:14:36.236Z,6.52
2023-11-18T12:17:14.628Z,5.33
2023-11-18T12:20:03.048Z,5.62
2023-11-18T12:23:16.056Z,4.53
2023-11-18T12:25:44.179Z,5.65
2023-11-18T12:28:15.919Z,5.10
2023-11-18T12:30:57.882Z,4.96
2023-11-18T12:33:30.253Z,4.94
2023-11-18T12:36:56.869Z,5.83
2023-11-18T12:40:19.129Z,6.25
2023-11-18T12:43:06.485Z,5.84
2023-11-18T12:46:01.493Z,5.87
2023-11-18T12:48:33.647Z,6.06
2023-11-18T12:51:01.565Z,5.73
2023-11-18T12:53:29.985Z,5.53
2023-11-18T12:56:00.157Z,5.30
2023-11-18T12:58:27.444Z,4.93
2023-11-18T13:01:00.572Z,5.26
2023-11-18T13:03:27.755Z,4.70
2023-11-18T13:05:55.129Z,4.58
2023-11-18T13:08:23.883Z,4.62
2023-11-18T13:10:51.713Z,4.54
2023-11-18T13:13:20.862Z,4.31
2023-11-18T13:15:51.931Z,4.53
2023-11-18T13:18:19.096Z,4.06
2023-11-18T13:20:59.814Z,4.09
2023-11-18T13:23:28.170Z,4.29
2023-11-18T13:26:01.173Z,4.41
2023-11-18T13:28:28.891Z,4.37
2023-11-18T13:30:56.284Z,4.65
2023-11-18T13:33:24.845Z,4.70
2023-11-18T13:35:52.134Z,4.71
2023-11-18T13:38:19.816Z,4.49
2023-11-18T13:40:49.235Z,4.16
2023-11-18T13:43:17.615Z,4.44
2023-11-18T13:45:44.837Z,4.74
2023-11-18T13:48:14.740Z,4.92
2023-11-18T13:50:44.302Z,5.29
2023-11-18T13:53:12.376Z,5.52
2023-11-18T13:55:41.566Z,5.43
2023-11-18T13:58:11.804Z,5.44
2023-11-18T14:00:43.373Z,5.67
2023-11-18T14:03:13.221Z,5.41
2023-11-18T14:05:40.440Z,5.30
2023-11-18T14:08:11.233Z,5.34
2023-11-18T14:10:41.347Z,5.35
2023-11-18T14:13:14.425Z,5.24
2023-11-18T14:15:44.061Z,5.26
2023-11-18T14:18:11.935Z,5.46
2023-11-18T14:20:39.160Z,5.58
2023-11-18T14:23:06.619Z,5.84
2023-11-18T14:25:35.096Z,5.94
2023-11-18T14:28:03.834Z,5.94
2023-11-18T14:30:31.583Z,6.01
2023-11-18T14:32:58.826Z,6.12
2023-11-18T14:35:30.014Z,6.48
2023-11-18T14:37:58.147Z,6.23
2023-11-18T14:40:25.472Z,5.92
2023-11-18T14:42:53.486Z,6.19
2023-11-18T14:45:21.117Z,6.86
2023-11-18T14:47:49.890Z,7.54
2023-11-18T14:50:21.911Z,6.24
2023-11-18T14:52:52.884Z,6.24
2023-11-18T14:55:20.226Z,6.45
2023-11-18T14:57:47.892Z,6.24
2023-11-18T15:00:23.946Z,6.01
2023-11-18T15:02:53.765Z,7.12
2023-11-18T15:05:23.568Z,9.95
2023-11-18T15:08:01.849Z,10.68
2023-11-18T15:10:29.803Z,7.39
2023-11-18T15:13:00.045Z,6.04
2023-11-18T15:15:33.347Z,6.27
2023-11-18T15:18:09.880Z,6.00
2023-11-18T15:20:46.027Z,6.35
2023-11-18T15:23:19.416Z,6.62
2023-11-18T15:25:46.599Z,6.27
2023-11-18T15:28:14.280Z,6.23
2023-11-18T15:30:41.791Z,6.34
2023-11-18T15:33:11.722Z,6.48
2023-11-18T15:35:39.226Z,6.44
2023-11-18T15:38:10.358Z,6.69
2023-11-18T15:40:38.235Z,7.28
2023-11-18T15:43:12.735Z,7.46
2023-11-18T15:45:40.062Z,9.31
2023-11-18T15:48:08.501Z,10.88
2023-11-18T15:50:39.015Z,12.93
2023-11-18T15:53:09.842Z,15.02
2023-11-18T15:55:40.002Z,13.71
2023-11-18T15:58:07.178Z,16.64
2023-11-18T16:00:34.722Z,17.42
2023-11-18T16:03:03.150Z,27.43
2023-11-18T16:05:35.889Z,23.48
2023-11-18T16:08:08.733Z,22.77
2023-11-18T16:10:36.134Z,19.98
2023-11-18T16:13:03.626Z,17.45
2023-11-18T16:15:33.136Z,18.59
2023-11-18T16:18:02.122Z,14.33
2023-11-18T16:20:35.523Z,9.91
2023-11-18T16:23:04.333Z,10.98
2023-11-18T16:25:32.300Z,11.30
2023-11-18T16:28:03.292Z,12.75
2023-11-18T16:30:31.285Z,11.57
2023-11-18T16:33:02.316Z,9.92
2023-11-18T16:35:30.711Z,10.25
2023-11-18T16:37:58.295Z,9.95
2023-11-18T16:40:25.997Z,15.82
2023-11-18T16:43:00.926Z,34.49
2023-11-18T16:45:29.516Z,25.29
2023-11-18T16:47:56.900Z,24.93
2023-11-18T16:50:27.956Z,18.70
2023-11-18T16:52:56.631Z,21.56
2023-11-18T16:55:24.353Z,23.58
2023-11-18T16:57:54.294Z,24.22
2023-11-18T17:00:26.911Z,24.61
2023-11-18T17:02:58.304Z,38.15
2023-11-18T17:05:31.669Z,41.16
2023-11-18T17:08:00.649Z,58.04
2023-11-18T17:10:28.488Z,46.82
2023-11-18T17:12:55.763Z,35.46
2023-11-18T17:15:22.822Z,30.23
2023-11-18T17:18:04.472Z,27.31
2023-11-18T17:20:32.265Z,22.78
2023-11-18T17:22:59.687Z,24.05
2023-11-18T17:25:26.993Z,17.91
2023-11-18T17:27:54.505Z,15.84
2023-11-18T17:30:22.859Z,17.51
2023-11-18T17:32:53.186Z,19.54
2023-11-18T17:35:21.784Z,18.23
2023-11-18T17:37:49.249Z,17.05
2023-11-18T17:40:18.686Z,14.36
2023-11-18T17:42:46.412Z,14.03
2023-11-18T17:45:15.404Z,14.04
2023-11-18T17:47:44.652Z,14.28
2023-11-18T17:50:16.487Z,16.51
2023-11-18T17:52:46.067Z,23.20
2023-11-18T17:55:14.370Z,24.11
2023-11-18T17:57:42.015Z,25.39
2023-11-18T18:00:14.783Z,22.13
2023-11-18T18:02:43.322Z,22.05
2023-11-18T18:05:13.759Z,19.28
2023-11-18T18:07:42.717Z,16.23
2023-11-18T18:10:13.398Z,16.37
2023-11-18T18:12:44.098Z,15.92
2023-11-18T18:15:14.410Z,15.87
2023-11-18T18:17:42.149Z,14.91
2023-11-18T18:20:10.948Z,15.53
2023-11-18T18:22:39.957Z,15.65
2023-11-18T18:25:08.347Z,15.21
2023-11-18T18:27:35.465Z,15.16
2023-11-18T18:30:04.094Z,15.55
2023-11-18T18:32:32.929Z,15.69
2023-11-18T18:35:00.264Z,16.79
2023-11-18T18:37:28.843Z,16.57
2023-11-18T18:39:56.691Z,18.10
2023-11-18T18:42:25.612Z,18.73
2023-11-18T18:44:55.670Z,17.67
2023-11-18T18:47:25.262Z,16.86
2023-11-18T18:49:54.021Z,17.73
2023-11-18T18:52:21.289Z,18.07
2023-11-18T18:54:48.339Z,17.68
2023-11-18T18:57:16.653Z,17.10
2023-11-18T18:59:44.086Z,18.00
2023-11-18T19:02:12.727Z,18.63
2023-11-18T19:04:39.954Z,21.16
2023-11-18T19:07:10.960Z,22.36
2023-11-18T19:09:38.283Z,23.24
2023-11-18T19:12:13.096Z,32.00
2023-11-18T19:14:42.625Z,31.51
2023-11-18T19:17:10.690Z,30.48
2023-11-18T19:19:37.889Z,30.48
2023-11-18T19:22:07.439Z,32.48
2023-11-18T19:24:34.662Z,33.61
2023-11-18T19:27:01.837Z,33.01
2023-11-18T19:29:29.314Z,33.32
2023-11-18T19:31:56.697Z,33.70
2023-11-18T19:34:23.818Z,32.92
2023-11-18T19:36:50.849Z,30.16
2023-11-18T19:39:20.056Z,31.01
2023-11-18T19:41:47.629Z,31.10
2023-11-18T19:44:15.000Z,32.85
2023-11-18T19:46:43.754Z,34.89
2023-11-18T19:49:11.985Z,37.06
2023-11-18T19:51:39.287Z,36.52
2023-11-18T19:54:06.450Z,36.87
2023-11-18T19:56:33.946Z,38.19
2023-11-18T19:59:01.892Z,39.34
2023-11-18T20:01:29.917Z,38.45
2023-11-18T20:03:58.403Z,35.56
2023-11-18T20:06:28.874Z,33.32
2023-11-18T20:09:00.415Z,32.88
2023-11-18T20:11:35.835Z,31.34
2023-11-18T20:14:09.517Z,31.22
2023-11-18T20:16:44.784Z,31.09
2023-11-18T20:19:18.523Z,32.09
2023-11-18T20:21:49.739Z,31.18
2023-11-18T20:24:22.914Z,29.88
2023-11-18T20:26:58.004Z,29.00
2023-11-18T20:29:27.476Z,28.18
2023-11-18T20:31:59.186Z,29.82
2023-11-18T20:34:31.818Z,32.67
2023-11-18T20:37:08.497Z,34.63
2023-11-18T20:39:42.284Z,35.15
2023-11-18T20:42:27.733Z,39.51
2023-11-18T20:44:58.988Z,37.65
2023-11-18T20:47:28.193Z,39.90
2023-11-18T20:50:01.332Z,36.54
2023-11-18T20:52:34.352Z,39.64
2023-11-18T20:55:04.352Z,45.33
2023-11-18T20:57:42.456Z,45.34
2023-11-18T21:00:14.994Z,49.70
2023-11-18T21:02:51.851Z,49.75
2023-11-18T21:05:23.081Z,49.20
2023-11-18T21:07:59.276Z,47.90
2023-11-18T21:10:38.520Z,44.95
2023-11-18T21:13:08.807Z,40.39
2023-11-18T21:15:37.995Z,45.17
2023-11-18T21:18:08.288Z,49.74
2023-11-18T21:20:35.752Z,52.21
2023-11-18T21:23:03.556Z,53.97
2023-11-18T21:25:32.366Z,51.68
2023-11-18T21:28:05.443Z,54.40
2023-11-18T21:30:46.118Z,55.52
2023-11-18T21:33:22.886Z,52.77
2023-11-18T21:35:56.410Z,51.66
2023-11-18T21:38:53.282Z,51.54
2023-11-18T21:41:24.458Z,47.52
2023-11-18T21:43:55.249Z,48.41
2023-11-18T21:46:28.009Z,46.42
2023-11-18T21:48:57.756Z,43.61
2023-11-18T21:51:24.773Z,41.42
2023-11-18T21:53:51.836Z,42.20
2023-11-18T21:56:18.969Z,41.88
2023-11-18T21:58:46.092Z,41.26
2023-11-18T22:01:16.075Z,40.75
2023-11-18T22:03:44.046Z,40.00
2023-11-18T22:06:11.381Z,40.13
2023-11-18T22:08:39.090Z,42.89
2023-11-18T22:11:06.358Z,41.38
2023-11-18T22:13:33.477Z,40.01
2023-11-18T22:16:01.927Z,38.80
2023-11-18T22:18:29.186Z,37.77
2023-11-18T22:20:58.143Z,36.70
2023-11-18T22:23:27.923Z,37.57
2023-11-18T22:25:55.082Z,38.85
2023-11-18T22:28:22.166Z,39.76
2023-11-18T22:30:50.944Z,41.32
2023-11-18T22:35:49.791Z,38.83
2023-11-18T22:38:16.985Z,39.47
2023-11-18T22:40:46.440Z,40.27
2023-11-18T22:43:15.596Z,40.81
2023-11-18T22:45:42.649Z,41.52
2023-11-18T22:48:09.679Z,43.92
2023-11-18T22:50:39.663Z,44.04
2023-11-18T22:53:10.186Z,44.58
2023-11-18T22:55:39.622Z,43.88
2023-11-18T22:58:09.184Z,45.32
2023-11-18T23:00:39.696Z,45.27
2023-11-18T23:03:07.892Z,46.53
2023-11-18T23:05:37.474Z,49.58
2023-11-18T23:08:14.150Z,49.88
2023-11-18T23:10:41.879Z,52.24
2023-11-18T23:13:09.794Z,49.55
2023-11-18T23:15:41.018Z,47.59
2023-11-18T23:18:10.706Z,49.88
2023-11-18T23:20:39.208Z,50.10
2023-11-18T23:23:06.751Z,48.56
2023-11-18T23:25:34.915Z,43.76
2023-11-18T23:28:06.258Z,42.87
2023-11-18T23:30:33.423Z,45.59
2023-11-18T23:33:00.618Z,46.68
2023-11-18T23:35:31.361Z,46.05
2023-11-18T23:37:58.528Z,43.60
2023-11-18T23:40:26.773Z,40.33
2023-11-18T23:42:54.120Z,39.02
2023-11-18T23:45:21.508Z,38.36
2023-11-18T23:47:52.034Z,39.57
2023-11-18T23:50:21.248Z,39.31
2023-11-18T23:52:48.479Z,37.02
2023-11-18T23:55:15.662Z,36.35
2023-11-18T23:57:43.541Z,34.99
